Time,TemperatureF,DewpointF,PressureIn,WindDirection,WindDirectionDegrees,WindSpeedMPH,WindSpeedGustMPH,Humidity,HourlyPrecipIn,Conditions,Clouds,dailyrainin,SoftwareType,DateUTC
2013-09-05 00:02:00,44.7,43.4,30.19,ENE,66,0.0,0.0,95,0.00,,,0.00,Wunderground v.1.15,2013-09-05 05:02:00,
2013-09-05 00:12:00,44.1,42.8,30.20,ENE,66,0.0,0.0,95,0.00,,,0.00,Wunderground v.1.15,2013-09-05 05:12:00,
2013-09-05 00:22:00,43.9,42.6,30.20,ENE,66,0.0,0.0,95,0.00,,,0.00,Wunderground v.1.15,2013-09-05 05:22:00,
2013-09-05 00:32:00,43.7,42.6,30.20,ENE,66,0.0,0.0,96,0.00,,,0.00,Wunderground v.1.15,2013-09-05 05:32:00,
2013-09-05 00:42:00,43.6,42.5,30.20,ENE,66,0.0,0.0,96,0.00,,,0.00,Wunderground v.1.15,2013-09-05 05:42:00,
2013-09-05 00:52:00,43.4,42.1,30.21,ENE,66,0.0,0.0,95,0.00,,,0.00,Wunderground v.1.15,2013-09-05 05:52:00,
2013-09-05 01:02:00,43.2,42.1,30.21,ENE,66,0.0,0.0,96,0.00,,,0.00,Wunderground v.1.15,2013-09-05 06:02:00,
2013-09-05 01:12:00,43.0,41.9,30.21,ENE,66,0.0,0.0,96,0.00,,,0.00,Wunderground v.1.15,2013-09-05 06:12:00,
2013-09-05 01:22:00,43.1,42.0,30.22,ENE,66,0.0,0.0,96,0.00,,,0.00,Wunderground v.1.15,2013-09-05 06:22:00,
2013-09-05 01:32:00,42.9,41.8,30.22,ENE,66,0.0,0.0,96,0.00,,,0.00,Wunderground v.1.15,2013-09-05 06:32:00,
2013-09-05 01:42:00,42.8,41.7,30.22,ENE,66,0.0,0.0,96,0.00,,,0.00,Wunderground v.1.15,2013-09-05 06:42:00,
2013-09-05 01:52:00,42.9,41.8,30.22,ENE,66,0.0,0.0,96,0.00,,,0.00,Wunderground v.1.15,2013-09-05 06:52:00,
2013-09-05 02:02:00,42.5,41.4,30.23,ENE,66,0.0,0.0,96,0.00,,,0.00,Wunderground v.1.15,2013-09-05 07:02:00,
2013-09-05 02:12:00,42.2,41.1,30.23,ENE,66,0.0,0.0,96,0.00,,,0.00,Wunderground v.1.15,2013-09-05 07:12:00,
2013-09-05 02:22:00,42.2,41.1,30.23,ENE,66,0.0,0.0,96,0.00,,,0.00,Wunderground v.1.15,2013-09-05 07:22:00,
2013-09-05 02:32:00,42.2,41.1,30.23,ENE,66,0.0,0.0,96,0.00,,,0.00,Wunderground v.1.15,2013-09-05 07:32:00,
2013-09-05 02:42:00,42.3,41.2,30.23,ENE,66,0.0,0.0,96,0.00,,,0.00,Wunderground v.1.15,2013-09-05 07:42:00,
2013-09-05 02:52:00,41.9,40.8,30.23,ENE,66,0.0,0.0,96,0.00,,,0.00,Wunderground v.1.15,2013-09-05 07:52:00,
2013-09-05 03:02:00,41.8,40.7,30.23,ENE,66,0.0,0.0,96,0.00,,,0.00,Wunderground v.1.15,2013-09-05 08:02:00,
2013-09-05 03:12:00,41.7,40.6,30.24,ENE,66,0.0,0.0,96,0.00,,,0.00,Wunderground v.1.15,2013-09-05 08:12:00,
2013-09-05 03:22:00,41.6,40.5,30.24,ENE,66,0.0,0.0,96,0.00,,,0.00,Wunderground v.1.15,2013-09-05 08:22:00,
2013-09-05 03:32:00,41.2,40.1,30.24,ENE,66,0.0,0.0,96,0.00,,,0.00,Wunderground v.1.15,2013-09-05 08:32:00,
2013-09-05 03:42:00,41.2,40.1,30.24,ENE,66,0.0,0.0,96,0.00,,,0.00,Wunderground v.1.15,2013-09-05 08:42:00,
2013-09-05 03:52:00,40.9,39.8,30.25,ENE,66,0.0,0.0,96,0.00,,,0.00,Wunderground v.1.15,2013-09-05 08:52:00,
2013-09-05 04:02:00,40.7,39.6,30.25,ENE,66,0.0,0.0,96,0.00,,,0.00,Wunderground v.1.15,2013-09-05 09:02:00,
2013-09-05 04:12:00,40.8,39.7,30.25,ENE,66,0.0,0.0,96,0.00,,,0.00,Wunderground v.1.15,2013-09-05 09:12:00,
2013-09-05 04:22:00,40.7,39.6,30.25,ENE,66,0.0,0.0,96,0.00,,,0.00,Wunderground v.1.15,2013-09-05 09:22:00,
2013-09-05 04:32:00,40.5,39.4,30.25,ENE,66,0.0,0.0,96,0.00,,,0.00,Wunderground v.1.15,2013-09-05 09:32:00,
2013-09-05 04:42:00,40.5,39.4,30.25,ENE,66,0.0,0.0,96,0.00,,,0.00,Wunderground v.1.15,2013-09-05 09:42:00,
2013-09-05 04:52:00,40.5,39.4,30.26,ENE,66,0.0,0.0,96,0.00,,,0.00,Wunderground v.1.15,2013-09-05 09:52:00,
2013-09-05 05:02:00,40.2,39.2,30.26,ENE,66,0.0,0.0,96,0.00,,,0.00,Wunderground v.1.15,2013-09-05 10:02:00,
2013-09-05 05:12:00,40.0,39.0,30.26,ENE,66,0.0,0.0,96,0.00,,,0.00,Wunderground v.1.15,2013-09-05 10:12:00,
2013-09-05 05:22:00,39.9,38.9,30.27,ENE,66,0.0,0.0,96,0.00,,,0.00,Wunderground v.1.15,2013-09-05 10:22:00,
2013-09-05 05:32:00,39.6,38.6,30.28,ENE,66,0.0,0.0,96,0.00,,,0.00,Wunderground v.1.15,2013-09-05 10:32:00,
2013-09-05 05:42:00,39.7,38.7,30.28,ENE,66,0.0,0.0,96,0.00,,,0.00,Wunderground v.1.15,2013-09-05 10:42:00,
2013-09-05 05:52:00,39.5,38.5,30.28,ENE,66,0.0,0.0,96,0.00,,,0.00,Wunderground v.1.15,2013-09-05 10:52:00,
2013-09-05 06:02:00,39.4,38.6,30.29,ENE,66,0.0,0.0,97,0.00,,,0.00,Wunderground v.1.15,2013-09-05 11:02:00,
2013-09-05 06:12:00,39.4,38.6,30.30,ENE,66,0.0,0.0,97,0.00,,,0.00,Wunderground v.1.15,2013-09-05 11:12:00,
2013-09-05 06:22:00,39.4,38.6,30.30,ENE,66,0.0,0.0,97,0.00,,,0.00,Wunderground v.1.15,2013-09-05 11:22:00,
2013-09-05 06:32:00,39.6,38.8,30.31,ENE,66,0.0,0.0,97,0.00,,,0.00,Wunderground v.1.15,2013-09-05 11:32:00,
2013-09-05 06:42:00,39.8,39.0,30.31,ENE,66,0.0,0.0,97,0.00,,,0.00,Wunderground v.1.15,2013-09-05 11:42:00,
2013-09-05 06:52:00,40.1,39.3,30.31,ENE,66,0.0,0.0,97,0.00,,,0.00,Wunderground v.1.15,2013-09-05 11:52:00,
2013-09-05 07:02:00,40.4,39.6,30.31,ENE,66,0.0,0.0,97,0.00,,,0.00,Wunderground v.1.15,2013-09-05 12:02:00,
2013-09-05 07:12:00,40.6,39.8,30.31,ENE,66,0.0,0.0,97,0.00,,,0.00,Wunderground v.1.15,2013-09-05 12:12:00,
2013-09-05 07:22:00,41.8,41.0,30.31,ENE,66,0.0,0.0,97,0.00,,,0.00,Wunderground v.1.15,2013-09-05 12:22:00,
2013-09-05 07:32:00,43.2,42.4,30.31,ENE,66,0.0,0.0,97,0.00,,,0.00,Wunderground v.1.15,2013-09-05 12:32:00,
2013-09-05 07:42:00,44.7,43.9,30.31,ENE,66,0.0,0.0,97,0.00,,,0.00,Wunderground v.1.15,2013-09-05 12:42:00,
2013-09-05 07:52:00,47.4,46.6,30.31,ENE,66,0.0,0.0,97,0.00,,,0.00,Wunderground v.1.15,2013-09-05 12:52:00,
2013-09-05 08:02:00,48.8,48.0,30.31,ENE,66,0.0,0.0,97,0.00,,,0.00,Wunderground v.1.15,2013-09-05 13:02:00,
2013-09-05 08:12:00,50.6,49.2,30.31,ENE,66,0.0,0.0,95,0.00,,,0.00,Wunderground v.1.15,2013-09-05 13:12:00,
2013-09-05 08:22:00,52.0,48.6,30.32,ESE,103,0.0,1.0,88,0.00,,,0.00,Wunderground v.1.15,2013-09-05 13:22:00,
2013-09-05 08:32:00,53.0,47.3,30.32,SSE,165,0.0,1.0,81,0.00,,,0.00,Wunderground v.1.15,2013-09-05 13:32:00,
2013-09-05 08:42:00,53.5,47.8,30.32,SE,140,1.0,1.0,81,0.00,,,0.00,Wunderground v.1.15,2013-09-05 13:42:00,
2013-09-05 08:52:00,53.8,47.4,30.32,SSE,153,1.0,3.0,79,0.00,,,0.00,Wunderground v.1.15,2013-09-05 13:52:00,
2013-09-05 09:02:00,54.2,48.2,30.32,SSE,165,3.0,3.0,80,0.00,,,0.00,Wunderground v.1.15,2013-09-05 14:02:00,
2013-09-05 09:12:00,54.8,48.1,30.32,South,189,2.0,5.0,78,0.00,,,0.00,Wunderground v.1.15,2013-09-05 14:12:00,
2013-09-05 09:22:00,55.2,47.1,30.32,South,171,3.0,3.0,74,0.00,,,0.00,Wunderground v.1.15,2013-09-05 14:22:00,
2013-09-05 09:32:00,55.5,46.6,30.32,ESE,121,2.0,2.0,72,0.00,,,0.00,Wunderground v.1.15,2013-09-05 14:32:00,
2013-09-05 09:42:00,56.3,47.4,30.33,South,178,3.0,4.0,72,0.00,,,0.00,Wunderground v.1.15,2013-09-05 14:42:00,
2013-09-05 09:52:00,56.5,47.6,30.32,SE,140,3.0,3.0,72,0.00,,,0.00,Wunderground v.1.15,2013-09-05 14:52:00,
2013-09-05 10:02:00,56.9,48.3,30.32,SE,128,4.0,5.0,73,0.00,,,0.00,Wunderground v.1.15,2013-09-05 15:02:00,
2013-09-05 10:12:00,57.4,46.9,30.33,SE,145,4.0,4.0,68,0.00,,,0.00,Wunderground v.1.15,2013-09-05 15:12:00,
2013-09-05 10:22:00,58.6,49.2,30.32,East,96,2.0,2.0,71,0.00,,,0.00,Wunderground v.1.15,2013-09-05 15:22:00,
2013-09-05 10:32:00,59.0,48.8,30.32,South,180,2.0,3.0,69,0.00,,,0.00,Wunderground v.1.15,2013-09-05 15:32:00,
2013-09-05 10:42:00,59.4,47.6,30.32,SE,140,3.0,4.0,65,0.00,,,0.00,Wunderground v.1.15,2013-09-05 15:42:00,
2013-09-05 10:52:00,59.3,47.5,30.32,SE,142,2.0,2.0,65,0.00,,,0.00,Wunderground v.1.15,2013-09-05 15:52:00,
2013-09-05 11:02:00,59.9,49.3,30.32,SSE,153,3.0,3.0,68,0.00,,,0.00,Wunderground v.1.15,2013-09-05 16:02:00,
2013-09-05 11:12:00,59.8,46.7,30.31,SSE,151,2.0,2.0,62,0.00,,,0.00,Wunderground v.1.15,2013-09-05 16:12:00,
2013-09-05 11:22:00,61.2,47.2,30.31,West,271,2.0,2.0,60,0.00,,,0.00,Wunderground v.1.15,2013-09-05 16:22:00,
2013-09-05 11:32:00,61.2,47.6,30.31,South,186,2.0,4.0,61,0.00,,,0.00,Wunderground v.1.15,2013-09-05 16:32:00,
2013-09-05 11:42:00,61.2,47.6,30.31,SSW,198,3.0,3.0,61,0.00,,,0.00,Wunderground v.1.15,2013-09-05 16:42:00,
2013-09-05 11:52:00,62.0,50.1,30.31,South,185,2.0,2.0,65,0.00,,,0.00,Wunderground v.1.15,2013-09-05 16:52:00,
2013-09-05 12:02:00,62.3,48.2,30.30,NNW,339,2.0,2.0,60,0.00,,,0.00,Wunderground v.1.15,2013-09-05 17:02:00,
2013-09-05 12:12:00,63.3,48.7,30.30,SSW,193,2.0,3.0,59,0.00,,,0.00,Wunderground v.1.15,2013-09-05 17:12:00,
2013-09-05 12:22:00,63.6,49.5,30.30,ESE,110,1.0,1.0,60,0.00,,,0.00,Wunderground v.1.15,2013-09-05 17:22:00,
2013-09-05 12:32:00,63.3,47.8,30.30,WNW,303,2.0,2.0,57,0.00,,,0.00,Wunderground v.1.15,2013-09-05 17:32:00,
2013-09-05 12:42:00,63.5,48.5,30.29,SW,233,1.0,1.0,58,0.00,,,0.00,Wunderground v.1.15,2013-09-05 17:42:00,
2013-09-05 12:52:00,64.8,50.1,30.29,SSE,149,2.0,4.0,59,0.00,,,0.00,Wunderground v.1.15,2013-09-05 17:52:00,
2013-09-05 13:02:00,63.9,47.4,30.29,SW,219,3.0,7.0,55,0.00,,,0.00,Wunderground v.1.15,2013-09-05 18:02:00,
2013-09-05 13:12:00,64.9,48.8,30.29,West,265,2.0,2.0,56,0.00,,,0.00,Wunderground v.1.15,2013-09-05 18:12:00,
2013-09-05 13:22:00,64.6,48.1,30.29,SSW,209,3.0,3.0,55,0.00,,,0.00,Wunderground v.1.15,2013-09-05 18:22:00,
2013-09-05 13:32:00,65.8,47.7,30.29,NW,309,1.0,1.0,52,0.00,,,0.00,Wunderground v.1.15,2013-09-05 18:32:00,
2013-09-05 13:42:00,65.8,48.7,30.28,SW,229,3.0,3.0,54,0.00,,,0.00,Wunderground v.1.15,2013-09-05 18:42:00,
2013-09-05 13:52:00,65.4,47.8,30.28,WNW,293,1.0,1.0,53,0.00,,,0.00,Wunderground v.1.15,2013-09-05 18:52:00,
2013-09-05 14:02:00,66.1,48.0,30.28,SSW,205,2.0,2.0,52,0.00,,,0.00,Wunderground v.1.15,2013-09-05 19:02:00,
2013-09-05 14:12:00,66.9,51.6,30.27,SSW,199,1.0,3.0,58,0.00,,,0.00,Wunderground v.1.15,2013-09-05 19:12:00,
2013-09-05 14:22:00,67.8,50.5,30.27,NW,325,2.0,5.0,54,0.00,,,0.00,Wunderground v.1.15,2013-09-05 19:22:00,
2013-09-05 14:32:00,66.8,47.6,30.26,SE,138,2.0,4.0,50,0.00,,,0.00,Wunderground v.1.15,2013-09-05 19:32:00,
2013-09-05 14:42:00,66.9,48.2,30.26,SE,134,2.0,2.0,51,0.00,,,0.00,Wunderground v.1.15,2013-09-05 19:42:00,
2013-09-05 14:52:00,68.1,48.8,30.26,North,349,2.0,3.0,50,0.00,,,0.00,Wunderground v.1.15,2013-09-05 19:52:00,
2013-09-05 15:02:00,67.5,47.7,30.26,South,176,2.0,2.0,49,0.00,,,0.00,Wunderground v.1.15,2013-09-05 20:02:00,
2013-09-05 15:12:00,67.9,51.1,30.26,South,188,1.0,5.0,55,0.00,,,0.00,Wunderground v.1.15,2013-09-05 20:12:00,
2013-09-05 15:22:00,68.0,48.7,30.26,WSW,238,2.0,2.0,50,0.00,,,0.00,Wunderground v.1.15,2013-09-05 20:22:00,
2013-09-05 15:32:00,67.3,50.1,30.25,South,178,2.0,2.0,54,0.00,,,0.00,Wunderground v.1.15,2013-09-05 20:32:00,
2013-09-05 15:42:00,67.8,49.5,30.25,WSW,244,3.0,3.0,52,0.00,,,0.00,Wunderground v.1.15,2013-09-05 20:42:00,
2013-09-05 15:52:00,68.7,50.4,30.25,SW,228,2.0,2.0,52,0.00,,,0.00,Wunderground v.1.15,2013-09-05 20:52:00,
2013-09-05 16:02:00,68.5,49.7,30.25,WSW,246,2.0,2.0,51,0.00,,,0.00,Wunderground v.1.15,2013-09-05 21:02:00,
2013-09-05 16:12:00,68.2,51.9,30.24,SW,217,3.0,3.0,56,0.00,,,0.00,Wunderground v.1.15,2013-09-05 21:12:00,
2013-09-05 16:22:00,68.9,50.0,30.24,WSW,253,1.0,2.0,51,0.00,,,0.00,Wunderground v.1.15,2013-09-05 21:22:00,
2013-09-05 16:32:00,68.5,50.2,30.24,SSW,213,1.0,1.0,52,0.00,,,0.00,Wunderground v.1.15,2013-09-05 21:32:00,
2013-09-05 16:42:00,68.5,49.1,30.24,WNW,297,1.0,1.0,50,0.00,,,0.00,Wunderground v.1.15,2013-09-05 21:42:00,
2013-09-05 16:52:00,68.4,50.6,30.24,SSW,207,1.0,2.0,53,0.00,,,0.00,Wunderground v.1.15,2013-09-05 21:52:00,
2013-09-05 17:02:00,68.1,49.8,30.24,SSW,201,2.0,2.0,52,0.00,,,0.00,Wunderground v.1.15,2013-09-05 22:02:00,
2013-09-05 17:12:00,67.8,50.5,30.23,SSE,159,1.0,3.0,54,0.00,,,0.00,Wunderground v.1.15,2013-09-05 22:12:00,
2013-09-05 17:22:00,67.1,50.4,30.23,SSW,200,2.0,2.0,55,0.00,,,0.00,Wunderground v.1.15,2013-09-05 22:22:00,
2013-09-05 17:32:00,66.8,50.1,30.23,SE,146,1.0,1.0,55,0.00,,,0.00,Wunderground v.1.15,2013-09-05 22:32:00,
2013-09-05 17:42:00,66.6,49.9,30.23,SSE,161,1.0,1.0,55,0.00,,,0.00,Wunderground v.1.15,2013-09-05 22:42:00,
2013-09-05 17:52:00,66.2,51.0,30.23,SSE,161,1.0,1.0,58,0.00,,,0.00,Wunderground v.1.15,2013-09-05 22:52:00,
2013-09-05 18:02:00,64.7,53.1,30.23,SSE,160,1.0,1.0,66,0.00,,,0.00,Wunderground v.1.15,2013-09-05 23:02:00,
2013-09-05 18:12:00,64.3,53.5,30.23,South,173,1.0,2.0,68,0.00,,,0.00,Wunderground v.1.15,2013-09-05 23:12:00,
2013-09-05 18:22:00,64.3,53.5,30.23,SSW,192,2.0,2.0,68,0.00,,,0.00,Wunderground v.1.15,2013-09-05 23:22:00,
2013-09-05 18:32:00,62.6,53.1,30.22,South,188,1.0,1.0,71,0.00,,,0.00,Wunderground v.1.15,2013-09-05 23:32:00,
2013-09-05 18:42:00,61.4,53.8,30.22,South,188,1.0,1.0,76,0.00,,,0.00,Wunderground v.1.15,2013-09-05 23:42:00,
2013-09-05 18:52:00,59.8,53.3,30.22,South,188,1.0,1.0,79,0.00,,,0.00,Wunderground v.1.15,2013-09-05 23:52:00,
2013-09-05 19:02:00,59.3,53.5,30.22,South,188,0.0,0.0,81,0.00,,,0.00,Wunderground v.1.15,2013-09-06 00:02:00,
2013-09-05 19:12:00,58.4,52.9,30.22,South,188,0.0,0.0,82,0.00,,,0.00,Wunderground v.1.15,2013-09-06 00:12:00,
2013-09-05 19:22:00,57.7,52.9,30.21,South,188,0.0,0.0,84,0.00,,,0.00,Wunderground v.1.15,2013-09-06 00:22:00,
2013-09-05 19:32:00,57.1,52.6,30.21,South,188,0.0,0.0,85,0.00,,,0.00,Wunderground v.1.15,2013-09-06 00:32:00,
2013-09-05 19:52:00,55.8,51.7,30.22,South,188,0.0,0.0,86,0.00,,,0.00,Wunderground v.1.15,2013-09-06 00:52:00,
2013-09-05 20:02:00,55.3,51.5,30.22,South,188,0.0,1.0,87,0.00,,,0.00,Wunderground v.1.15,2013-09-06 01:02:00,
2013-09-05 20:12:00,54.8,51.3,30.22,South,186,1.0,2.0,88,0.00,,,0.00,Wunderground v.1.15,2013-09-06 01:12:00,
2013-09-05 20:22:00,55.7,51.3,30.22,South,182,1.0,2.0,85,0.00,,,0.00,Wunderground v.1.15,2013-09-06 01:22:00,
2013-09-05 20:32:00,57.2,52.1,30.22,South,175,1.0,1.0,83,0.00,,,0.00,Wunderground v.1.15,2013-09-06 01:32:00,
2013-09-05 20:42:00,57.4,52.3,30.22,SSE,161,1.0,3.0,83,0.00,,,0.00,Wunderground v.1.15,2013-09-06 01:42:00,
2013-09-05 20:52:00,57.3,52.2,30.22,SSE,164,2.0,2.0,83,0.00,,,0.00,Wunderground v.1.15,2013-09-06 01:52:00,
2013-09-05 21:02:00,57.0,51.6,30.22,SSW,192,2.0,3.0,82,0.00,,,0.00,Wunderground v.1.15,2013-09-06 02:02:00,
2013-09-05 21:12:00,56.7,51.6,30.22,SSE,167,3.0,3.0,83,0.00,,,0.00,Wunderground v.1.15,2013-09-06 02:12:00,
2013-09-05 21:22:00,56.6,51.5,30.22,SSW,192,2.0,3.0,83,0.00,,,0.00,Wunderground v.1.15,2013-09-06 02:22:00,
2013-09-05 21:32:00,56.8,51.4,30.22,SSW,196,3.0,7.0,82,0.00,,,0.00,Wunderground v.1.15,2013-09-06 02:32:00,
2013-09-05 21:42:00,57.0,51.2,30.22,SSW,204,4.0,4.0,81,0.00,,,0.00,Wunderground v.1.15,2013-09-06 02:42:00,
2013-09-05 21:52:00,56.8,51.0,30.22,SW,232,4.0,5.0,81,0.00,,,0.00,Wunderground v.1.15,2013-09-06 02:52:00,
2013-09-05 22:02:00,56.3,51.2,30.22,SSW,203,3.0,4.0,83,0.00,,,0.00,Wunderground v.1.15,2013-09-06 03:02:00,
2013-09-05 22:12:00,56.2,51.1,30.22,South,178,4.0,4.0,83,0.00,,,0.00,Wunderground v.1.15,2013-09-06 03:12:00,
2013-09-05 22:22:00,55.9,51.1,30.22,SSW,205,3.0,4.0,84,0.00,,,0.00,Wunderground v.1.15,2013-09-06 03:22:00,
2013-09-05 22:32:00,55.6,50.8,30.22,SSW,199,4.0,4.0,84,0.00,,,0.00,Wunderground v.1.15,2013-09-06 03:32:00,
2013-09-05 22:42:00,55.5,51.1,30.22,SSW,203,4.0,4.0,85,0.00,,,0.00,Wunderground v.1.15,2013-09-06 03:42:00,
2013-09-05 22:52:00,55.3,50.9,30.22,SSW,201,3.0,3.0,85,0.00,,,0.00,Wunderground v.1.15,2013-09-06 03:52:00,
2013-09-05 23:02:00,55.1,51.0,30.22,SSW,198,3.0,3.0,86,0.00,,,0.00,Wunderground v.1.15,2013-09-06 04:02:00,
2013-09-05 23:12:00,54.9,50.8,30.21,SSW,212,3.0,4.0,86,0.00,,,0.00,Wunderground v.1.15,2013-09-06 04:12:00,
2013-09-05 23:22:00,54.8,50.7,30.21,South,183,4.0,4.0,86,0.00,,,0.00,Wunderground v.1.15,2013-09-06 04:22:00,
2013-09-05 23:32:00,54.6,50.8,30.20,SW,216,4.0,4.0,87,0.00,,,0.00,Wunderground v.1.15,2013-09-06 04:32:00,
2013-09-05 23:42:00,54.6,50.8,30.20,SSW,199,5.0,5.0,87,0.00,,,0.00,Wunderground v.1.15,2013-09-06 04:42:00,
2013-09-05 23:52:00,54.4,50.6,30.20,SSW,207,4.0,4.0,87,0.00,,,0.00,Wunderground v.1.15,2013-09-06 04:52:00,